Kaisen Maru — JD2195 — position and weather

sailwx.info

Track history (hours):
 
Tides and Currents Weather Stations Pressure Air Temp Water Temp Dewpoint Dewpoint Depression Visibility Wind Speed Wind Dir Waves Ship Positions

Kaisen Maru

Last reported at 2017-Nov-20 00:30 UTC. Time now 2017-Nov-20 16:55 UTC.
Position N 34°15' E 135°07'.

Length 62 m; draft 4.2 m.

Type: Cargo ship. MMSI: 431602319.

Date/timePositionNaut miles runAvg speedWind from/ knotsBaromVisibWave heightAir tempDewpointWater temp
2017-Nov-20 00:30N 34°15' E 135°07'0 0.0
2017-Nov-20 00:00N 34°15' E 135°07'0 0.1
2017-Nov-19 23:30N 34°15' E 135°07'0 0.0
2017-Nov-19 23:00N 34°15' E 135°07'0 0.0
2017-Nov-19 22:30N 34°15' E 135°07'0 0.0
2017-Nov-19 22:00N 34°15' E 135°07'0 0.0
2017-Nov-19 21:30N 34°15' E 135°07'0 0.0
2017-Nov-19 21:00N 34°15' E 135°07'1 1.0
2017-Nov-19 20:30N 34°14' E 135°07'4 7.6
2017-Nov-19 20:00N 34°11' E 135°08'4 7.0
2017-Nov-19 19:30N 34°09' E 135°12'0 0.0
2017-Nov-19 19:00N 34°09' E 135°12'0 0.0
2017-Nov-19 18:30N 34°09' E 135°12'0 0.0
2017-Nov-19 18:00N 34°09' E 135°12'0 0.0
2017-Nov-19 17:30N 34°09' E 135°12'0 0.0
2017-Nov-19 17:00N 34°09' E 135°12'0 0.0
2017-Nov-19 16:30N 34°09' E 135°12'0 0.0
2017-Nov-19 16:00N 34°09' E 135°12'0 0.0
2017-Nov-19 15:30N 34°09' E 135°12'0 0.0
2017-Nov-19 15:00N 34°09' E 135°12'0 0.0
2017-Nov-19 14:30N 34°09' E 135°12'0 0.0
2017-Nov-19 14:00N 34°09' E 135°12'0 0.0
2017-Nov-19 13:30N 34°09' E 135°12'0 0.0
2017-Nov-19 13:00N 34°09' E 135°12'0 0.0
2017-Nov-19 12:30N 34°09' E 135°12'0 0.0
2017-Nov-19 12:00N 34°09' E 135°12'0 0.0
2017-Nov-19 11:30N 34°09' E 135°12'0 0.0
2017-Nov-19 11:00N 34°09' E 135°12'0 0.0
2017-Nov-19 10:30N 34°09' E 135°12'0 0.0
2017-Nov-19 10:00N 34°09' E 135°12'0 0.0
2017-Nov-19 09:30N 34°09' E 135°12'0 0.0
2017-Nov-19 09:00N 34°09' E 135°12'0 0.0
2017-Nov-19 08:25N 34°09' E 135°12'0 0.0
2017-Nov-19 07:45N 34°09' E 135°12'0 0.0
2017-Nov-19 07:18N 34°09' E 135°12'0 0.0
2017-Nov-19 07:00N 34°09' E 135°12'0 0.0
2017-Nov-19 06:30N 34°09' E 135°12'0 0.0
2017-Nov-19 06:00N 34°09' E 135°12'1 2.9
2017-Nov-19 05:30N 34°09' E 135°10'611.9
2017-Nov-19 05:00N 34°14' E 135°06'1 3.0
2017-Nov-19 04:30N 34°15' E 135°05'0 0.0
2017-Nov-19 04:01N 34°15' E 135°05'0 0.0
2017-Nov-19 03:30N 34°15' E 135°05'0 0.0
2017-Nov-19 03:00N 34°15' E 135°05'0 0.0
2017-Nov-19 02:31N 34°15' E 135°05'0 0.0
2017-Nov-19 02:01N 34°15' E 135°05'0 0.0
2017-Nov-19 01:30N 34°15' E 135°05'1 2.0
2017-Nov-19 01:00N 34°15' E 135°04'810.5
2017-Nov-19 00:12N 34°23' E 135°08'210.7
2017-Nov-18 23:59N 34°25' E 135°09'510.6
2017-Nov-18 23:29N 34°28' E 135°14'611.0
2017-Nov-18 22:55N 34°33' E 135°20'511.0
2017-Nov-18 22:30N 34°36' E 135°24'3 5.7
2017-Nov-18 22:00N 34°34' E 135°27'0 0.0
2017-Nov-18 21:30N 34°34' E 135°27'0 0.0
2017-Nov-18 21:00N 34°34' E 135°27'0 0.0
2017-Nov-18 20:30N 34°34' E 135°27'0 0.0
2017-Nov-18 20:00N 34°34' E 135°27'0 0.0
2017-Nov-18 19:30N 34°34' E 135°27'0 0.0
2017-Nov-18 19:00N 34°34' E 135°27'0 0.0
2017-Nov-18 18:30N 34°34' E 135°27'0 0.0
2017-Nov-18 18:00N 34°34' E 135°27'0 0.0
2017-Nov-18 17:30N 34°34' E 135°27'0 0.0
2017-Nov-18 17:00N 34°34' E 135°27'0 0.0
2017-Nov-18 16:30N 34°34' E 135°27'0 0.0
2017-Nov-18 16:00N 34°34' E 135°27'0 0.0
2017-Nov-18 15:30N 34°34' E 135°27'0 0.0
2017-Nov-18 14:59N 34°34' E 135°27'0 0.0
2017-Nov-18 14:29N 34°34' E 135°27'0 0.0
2017-Nov-18 14:00N 34°34' E 135°27'0 0.0
2017-Nov-18 13:30N 34°34' E 135°27'0 0.0
2017-Nov-18 13:00N 34°34' E 135°27'0 0.0
2017-Nov-18 12:30N 34°34' E 135°27'0 0.0
2017-Nov-18 12:00N 34°34' E 135°27'0 0.0
2017-Nov-18 11:30N 34°34' E 135°27'0 0.0
2017-Nov-18 11:00N 34°34' E 135°27'0 0.0
2017-Nov-18 10:30N 34°34' E 135°27'0 0.0
2017-Nov-18 10:00N 34°34' E 135°27'0 0.0
2017-Nov-18 09:30N 34°34' E 135°27'0 0.0
2017-Nov-18 09:00N 34°34' E 135°27'0 0.0
2017-Nov-18 08:24N 34°34' E 135°27'0 0.0
2017-Nov-18 08:00N 34°34' E 135°27'0 0.0
2017-Nov-18 07:30N 34°34' E 135°27'0 0.0
2017-Nov-18 07:00N 34°34' E 135°27'0 0.0
2017-Nov-18 06:30N 34°34' E 135°27'0 0.0
2017-Nov-18 06:00N 34°34' E 135°27'0 0.0
2017-Nov-18 05:30N 34°34' E 135°27'0 0.0
2017-Nov-18 05:00N 34°34' E 135°27'0 0.0
2017-Nov-18 04:30N 34°34' E 135°27'0 0.0
2017-Nov-18 04:00N 34°34' E 135°27'0 0.0
2017-Nov-18 03:30N 34°34' E 135°27'0 0.0
2017-Nov-18 03:00N 34°34' E 135°27'0 0.0
2017-Nov-18 02:30N 34°34' E 135°27'0 0.0
2017-Nov-18 02:00N 34°34' E 135°27'0 0.0
2017-Nov-18 01:30N 34°34' E 135°27'3 5.3
2017-Nov-18 00:59N 34°36' E 135°24'2 3.6
2017-Nov-18 00:30N 34°36' E 135°22'0 0.0
2017-Nov-18 00:00N 34°36' E 135°22'0 0.0
2017-Nov-17 23:30N 34°36' E 135°22'0 0.0
2017-Nov-17 23:00N 34°36' E 135°22'0 0.0
2017-Nov-17 22:29N 34°36' E 135°22'0 0.0
2017-Nov-17 22:00N 34°36' E 135°22'0 0.0
2017-Nov-17 21:30N 34°36' E 135°22'0 0.0
2017-Nov-17 21:00N 34°36' E 135°22'0 0.0
2017-Nov-17 20:30N 34°36' E 135°22'0 0.0
2017-Nov-17 20:00N 34°36' E 135°22'0 0.0
2017-Nov-17 19:30N 34°36' E 135°22'0 0.0
2017-Nov-17 19:00N 34°36' E 135°22'3 6.4
2017-Nov-17 18:30N 34°35' E 135°18'511.0
2017-Nov-17 18:00N 34°35' E 135°12'612.2
2017-Nov-17 17:30N 34°35' E 135°04'713.5
2017-Nov-17 17:00N 34°36' E 134°56'  
2017-Nov-14 12:25N 34°38' E 134°59'4 9.5
2017-Nov-14 12:00N 34°36' E 135°04'510.1
2017-Nov-14 11:30N 34°36' E 135°10'510.6
2017-Nov-14 11:00N 34°37' E 135°16'510.0
2017-Nov-14 10:29N 34°38' E 135°22'3 6.7
2017-Nov-14 10:01N 34°37' E 135°26'0 0.0
2017-Nov-14 09:31N 34°37' E 135°26'0 0.0
2017-Nov-14 09:00N 34°37' E 135°26'0 0.0
2017-Nov-14 08:23N 34°37' E 135°26'0 0.0
2017-Nov-14 06:54N 34°37' E 135°26'0 0.0
2017-Nov-14 06:30N 34°37' E 135°26'0 0.0
2017-Nov-14 06:00N 34°37' E 135°26'2 3.3
2017-Nov-14 05:30N 34°39' E 135°25'2 3.8
2017-Nov-14 05:00N 34°39' E 135°27'0 0.0
2017-Nov-14 04:19N 34°39' E 135°27'0 0.0
2017-Nov-14 03:58N 34°39' E 135°27'0 0.0
2017-Nov-14 03:30N 34°39' E 135°27'0 0.0
2017-Nov-14 02:59N 34°39' E 135°27'0 0.0
2017-Nov-14 02:29N 34°39' E 135°27'0 0.0
2017-Nov-14 02:01N 34°39' E 135°27'0 0.0
2017-Nov-14 01:30N 34°39' E 135°27'0 0.0
2017-Nov-14 01:00N 34°39' E 135°27'0 0.9
2017-Nov-14 00:31N 34°39' E 135°27'0 0.0
2017-Nov-14 00:00N 34°39' E 135°27'0 0.0
2017-Nov-13 23:31N 34°39' E 135°27'0 0.0
2017-Nov-13 23:00N 34°39' E 135°27'0 0.0
2017-Nov-13 22:31N 34°39' E 135°27'0 0.0
2017-Nov-13 22:01N 34°39' E 135°27'  
Track history (hours):
 
Tides and Currents Weather Stations Pressure Air Temp Water Temp Dewpoint Dewpoint Depression Visibility Wind Speed Wind Dir Waves Ship Positions

Kaisen Maru

Last reported at 2017-Nov-20 00:30 UTC. Time now 2017-Nov-20 16:55 UTC.
Position N 34°15' E 135°07'.

Length 62 m; draft 4.2 m.

Type: Cargo ship. MMSI: 431602319.

Date/timePositionNaut miles runAvg speedWind from/ knotsBaromVisibWave heightAir tempDewpointWater temp
2017-Nov-20 00:30N 34°15' E 135°07'0 0.0
2017-Nov-20 00:00N 34°15' E 135°07'0 0.1
2017-Nov-19 23:30N 34°15' E 135°07'0 0.0
2017-Nov-19 23:00N 34°15' E 135°07'0 0.0
2017-Nov-19 22:30N 34°15' E 135°07'0 0.0
2017-Nov-19 22:00N 34°15' E 135°07'0 0.0
2017-Nov-19 21:30N 34°15' E 135°07'0 0.0
2017-Nov-19 21:00N 34°15' E 135°07'1 1.0
2017-Nov-19 20:30N 34°14' E 135°07'4 7.6
2017-Nov-19 20:00N 34°11' E 135°08'4 7.0
2017-Nov-19 19:30N 34°09' E 135°12'0 0.0
2017-Nov-19 19:00N 34°09' E 135°12'0 0.0
2017-Nov-19 18:30N 34°09' E 135°12'0 0.0
2017-Nov-19 18:00N 34°09' E 135°12'0 0.0
2017-Nov-19 17:30N 34°09' E 135°12'0 0.0
2017-Nov-19 17:00N 34°09' E 135°12'0 0.0
2017-Nov-19 16:30N 34°09' E 135°12'0 0.0
2017-Nov-19 16:00N 34°09' E 135°12'0 0.0
2017-Nov-19 15:30N 34°09' E 135°12'0 0.0
2017-Nov-19 15:00N 34°09' E 135°12'0 0.0
2017-Nov-19 14:30N 34°09' E 135°12'0 0.0
2017-Nov-19 14:00N 34°09' E 135°12'0 0.0
2017-Nov-19 13:30N 34°09' E 135°12'0 0.0
2017-Nov-19 13:00N 34°09' E 135°12'0 0.0
2017-Nov-19 12:30N 34°09' E 135°12'0 0.0
2017-Nov-19 12:00N 34°09' E 135°12'0 0.0
2017-Nov-19 11:30N 34°09' E 135°12'0 0.0
2017-Nov-19 11:00N 34°09' E 135°12'0 0.0
2017-Nov-19 10:30N 34°09' E 135°12'0 0.0
2017-Nov-19 10:00N 34°09' E 135°12'0 0.0
2017-Nov-19 09:30N 34°09' E 135°12'0 0.0
2017-Nov-19 09:00N 34°09' E 135°12'0 0.0
2017-Nov-19 08:25N 34°09' E 135°12'0 0.0
2017-Nov-19 07:45N 34°09' E 135°12'0 0.0
2017-Nov-19 07:18N 34°09' E 135°12'0 0.0
2017-Nov-19 07:00N 34°09' E 135°12'0 0.0
2017-Nov-19 06:30N 34°09' E 135°12'0 0.0
2017-Nov-19 06:00N 34°09' E 135°12'1 2.9
2017-Nov-19 05:30N 34°09' E 135°10'611.9
2017-Nov-19 05:00N 34°14' E 135°06'1 3.0
2017-Nov-19 04:30N 34°15' E 135°05'0 0.0
2017-Nov-19 04:01N 34°15' E 135°05'0 0.0
2017-Nov-19 03:30N 34°15' E 135°05'0 0.0
2017-Nov-19 03:00N 34°15' E 135°05'0 0.0
2017-Nov-19 02:31N 34°15' E 135°05'0 0.0
2017-Nov-19 02:01N 34°15' E 135°05'0 0.0
2017-Nov-19 01:30N 34°15' E 135°05'1 2.0
2017-Nov-19 01:00N 34°15' E 135°04'810.5
2017-Nov-19 00:12N 34°23' E 135°08'210.7
2017-Nov-18 23:59N 34°25' E 135°09'510.6
2017-Nov-18 23:29N 34°28' E 135°14'611.0
2017-Nov-18 22:55N 34°33' E 135°20'511.0
2017-Nov-18 22:30N 34°36' E 135°24'3 5.7
2017-Nov-18 22:00N 34°34' E 135°27'0 0.0
2017-Nov-18 21:30N 34°34' E 135°27'0 0.0
2017-Nov-18 21:00N 34°34' E 135°27'0 0.0
2017-Nov-18 20:30N 34°34' E 135°27'0 0.0
2017-Nov-18 20:00N 34°34' E 135°27'0 0.0
2017-Nov-18 19:30N 34°34' E 135°27'0 0.0
2017-Nov-18 19:00N 34°34' E 135°27'0 0.0
2017-Nov-18 18:30N 34°34' E 135°27'0 0.0
2017-Nov-18 18:00N 34°34' E 135°27'0 0.0
2017-Nov-18 17:30N 34°34' E 135°27'0 0.0
2017-Nov-18 17:00N 34°34' E 135°27'0 0.0
2017-Nov-18 16:30N 34°34' E 135°27'0 0.0
2017-Nov-18 16:00N 34°34' E 135°27'0 0.0
2017-Nov-18 15:30N 34°34' E 135°27'0 0.0
2017-Nov-18 14:59N 34°34' E 135°27'0 0.0
2017-Nov-18 14:29N 34°34' E 135°27'0 0.0
2017-Nov-18 14:00N 34°34' E 135°27'0 0.0
2017-Nov-18 13:30N 34°34' E 135°27'0 0.0
2017-Nov-18 13:00N 34°34' E 135°27'0 0.0
2017-Nov-18 12:30N 34°34' E 135°27'0 0.0
2017-Nov-18 12:00N 34°34' E 135°27'0 0.0
2017-Nov-18 11:30N 34°34' E 135°27'0 0.0
2017-Nov-18 11:00N 34°34' E 135°27'0 0.0
2017-Nov-18 10:30N 34°34' E 135°27'0 0.0
2017-Nov-18 10:00N 34°34' E 135°27'0 0.0
2017-Nov-18 09:30N 34°34' E 135°27'0 0.0
2017-Nov-18 09:00N 34°34' E 135°27'0 0.0
2017-Nov-18 08:24N 34°34' E 135°27'0 0.0
2017-Nov-18 08:00N 34°34' E 135°27'0 0.0
2017-Nov-18 07:30N 34°34' E 135°27'0 0.0
2017-Nov-18 07:00N 34°34' E 135°27'0 0.0
2017-Nov-18 06:30N 34°34' E 135°27'0 0.0
2017-Nov-18 06:00N 34°34' E 135°27'0 0.0
2017-Nov-18 05:30N 34°34' E 135°27'0 0.0
2017-Nov-18 05:00N 34°34' E 135°27'0 0.0
2017-Nov-18 04:30N 34°34' E 135°27'0 0.0
2017-Nov-18 04:00N 34°34' E 135°27'0 0.0
2017-Nov-18 03:30N 34°34' E 135°27'0 0.0
2017-Nov-18 03:00N 34°34' E 135°27'0 0.0
2017-Nov-18 02:30N 34°34' E 135°27'0 0.0
2017-Nov-18 02:00N 34°34' E 135°27'0 0.0
2017-Nov-18 01:30N 34°34' E 135°27'3 5.3
2017-Nov-18 00:59N 34°36' E 135°24'2 3.6
2017-Nov-18 00:30N 34°36' E 135°22'0 0.0
2017-Nov-18 00:00N 34°36' E 135°22'0 0.0
2017-Nov-17 23:30N 34°36' E 135°22'0 0.0
2017-Nov-17 23:00N 34°36' E 135°22'0 0.0
2017-Nov-17 22:29N 34°36' E 135°22'0 0.0
2017-Nov-17 22:00N 34°36' E 135°22'0 0.0
2017-Nov-17 21:30N 34°36' E 135°22'0 0.0
2017-Nov-17 21:00N 34°36' E 135°22'0 0.0
2017-Nov-17 20:30N 34°36' E 135°22'0 0.0
2017-Nov-17 20:00N 34°36' E 135°22'0 0.0
2017-Nov-17 19:30N 34°36' E 135°22'0 0.0
2017-Nov-17 19:00N 34°36' E 135°22'3 6.4
2017-Nov-17 18:30N 34°35' E 135°18'511.0
2017-Nov-17 18:00N 34°35' E 135°12'612.2
2017-Nov-17 17:30N 34°35' E 135°04'713.5
2017-Nov-17 17:00N 34°36' E 134°56'  
2017-Nov-14 12:25N 34°38' E 134°59'4 9.5
2017-Nov-14 12:00N 34°36' E 135°04'510.1
2017-Nov-14 11:30N 34°36' E 135°10'510.6
2017-Nov-14 11:00N 34°37' E 135°16'510.0
2017-Nov-14 10:29N 34°38' E 135°22'3 6.7
2017-Nov-14 10:01N 34°37' E 135°26'0 0.0
2017-Nov-14 09:31N 34°37' E 135°26'0 0.0
2017-Nov-14 09:00N 34°37' E 135°26'0 0.0
2017-Nov-14 08:23N 34°37' E 135°26'0 0.0
2017-Nov-14 06:54N 34°37' E 135°26'0 0.0
2017-Nov-14 06:30N 34°37' E 135°26'0 0.0
2017-Nov-14 06:00N 34°37' E 135°26'2 3.3
2017-Nov-14 05:30N 34°39' E 135°25'2 3.8
2017-Nov-14 05:00N 34°39' E 135°27'0 0.0
2017-Nov-14 04:19N 34°39' E 135°27'0 0.0
2017-Nov-14 03:58N 34°39' E 135°27'0 0.0
2017-Nov-14 03:30N 34°39' E 135°27'0 0.0
2017-Nov-14 02:59N 34°39' E 135°27'0 0.0
2017-Nov-14 02:29N 34°39' E 135°27'0 0.0
2017-Nov-14 02:01N 34°39' E 135°27'0 0.0
2017-Nov-14 01:30N 34°39' E 135°27'0 0.0
2017-Nov-14 01:00N 34°39' E 135°27'0 0.9
2017-Nov-14 00:31N 34°39' E 135°27'0 0.0
2017-Nov-14 00:00N 34°39' E 135°27'0 0.0
2017-Nov-13 23:31N 34°39' E 135°27'0 0.0
2017-Nov-13 23:00N 34°39' E 135°27'0 0.0
2017-Nov-13 22:31N 34°39' E 135°27'0 0.0
2017-Nov-13 22:01N 34°39' E 135°27'  

Dump ship's entire track history